Time;durP1;ratioP1;P1;durP2;ratioP2;P2;SDS_P1;SDS_P2;PMS_P1;PMS_P2;Temp;Humidity;BMP_temperature;BMP_pressure;BME280_temperature;BME280_humidity;BME280_pressure;Samples;Min_cycle;Max_cycle;Signal;HPM_P1;HPM_P2
2021/12/22 00:00:11;;;;;;;18.10;12.70;;;-4.50;90.40;;;-6.58;95.66;98900.97;4964922;28;20469;-76
2021/12/22 00:02:46;;;;;;;20.40;12.73;;;-4.70;90.30;;;-6.65;96.17;98886.47;4963312;28;20461;-73
2021/12/22 00:05:15;;;;;;;15.10;11.97;;;-4.80;91.50;;;-6.67;95.45;98875.19;4960757;28;20459;-73
2021/12/22 00:07:43;;;;;;;15.50;11.83;;;-4.70;92.10;;;-6.61;95.76;98895.88;4965995;28;20475;-74
2021/12/22 00:10:10;;;;;;;18.20;13.20;;;-4.80;91.70;;;-6.63;95.91;98887.22;4964256;28;20549;-73
2021/12/22 00:12:39;;;;;;;17.47;12.80;;;-4.80;92.40;;;-6.59;95.75;98898.41;4959839;28;20497;-75
2021/12/22 00:15:08;;;;;;;16.27;13.03;;;-4.80;92.00;;;-6.63;96.34;98903.00;4962071;28;20523;-73
2021/12/22 00:17:35;;;;;;;19.20;11.90;;;-4.80;92.20;;;-6.65;96.38;98906.66;4963899;28;20468;-73
2021/12/22 00:20:03;;;;;;;20.73;12.60;;;-4.80;92.50;;;-6.64;95.86;98895.22;4962535;28;20497;-74
2021/12/22 00:22:30;;;;;;;16.73;13.40;;;-4.90;92.70;;;-6.61;95.75;98906.38;4961703;28;20486;-73
2021/12/22 00:24:57;;;;;;;18.27;12.80;;;-4.80;92.70;;;-6.60;95.39;98889.66;4960972;28;21067;-73
2021/12/22 00:27:25;;;;;;;19.93;13.40;;;-4.70;92.40;;;-6.53;95.13;98895.44;4967757;28;20462;-72
2021/12/22 00:29:53;;;;;;;21.40;13.17;;;-4.70;91.20;;;-6.69;94.68;98874.44;4966148;28;21030;-74
2021/12/22 00:32:22;;;;;;;18.43;13.17;;;-4.70;90.40;;;-6.54;94.51;98893.75;4978376;28;20465;-74
2021/12/22 00:34:54;;;;;;;20.83;14.10;;;-4.70;90.20;;;-6.57;94.41;98902.69;4961528;28;20473;-75
2021/12/22 00:37:24;;;;;;;19.93;13.47;;;-4.70;89.80;;;-6.65;94.47;98902.22;4979157;28;20494;-74
2021/12/22 00:39:52;;;;;;;18.20;13.57;;;-4.70;89.20;;;-6.62;93.94;98904.69;4981563;28;20533;-74
2021/12/22 00:42:21;;;;;;;18.97;12.73;;;-4.70;88.80;;;-6.76;94.71;98899.34;4987193;28;20461;-73
2021/12/22 00:44:52;;;;;;;18.90;13.07;;;-4.80;88.30;;;-6.74;93.93;98900.13;4965918;28;20996;-72
2021/12/22 00:47:23;;;;;;;19.73;12.67;;;-4.90;88.60;;;-6.76;94.62;98896.72;4968578;28;20453;-74
2021/12/22 00:49:51;;;;;;;16.97;13.10;;;-4.90;89.60;;;-6.76;94.53;98901.97;4965801;28;20570;-74
2021/12/22 00:52:18;;;;;;;15.70;12.07;;;-4.90;89.50;;;-6.90;94.92;98890.44;4963776;28;20452;-74
2021/12/22 00:54:45;;;;;;;16.50;12.43;;;-5.00;88.80;;;-6.90;95.23;98879.06;4990106;28;20551;-75
2021/12/22 00:57:14;;;;;;;17.97;13.10;;;-4.90;90.70;;;-6.87;95.43;98882.41;4965645;28;20485;-75
2021/12/22 00:59:43;;;;;;;19.17;12.57;;;-5.00;90.50;;;-6.93;95.43;98887.13;4986414;28;20458;-75
2021/12/22 01:02:12;;;;;;;18.10;12.13;;;-5.00;90.50;;;-6.94;95.05;98888.91;4969248;28;20473;-76
2021/12/22 01:04:41;;;;;;;20.30;13.63;;;-5.00;90.20;;;-6.86;95.02;98891.13;4957363;28;20486;-73
2021/12/22 01:07:09;;;;;;;21.30;13.40;;;-5.00;90.30;;;-6.92;94.60;98896.72;4963929;28;20462;-75
2021/12/22 01:09:37;;;;;;;22.00;13.87;;;-5.00;90.10;;;-6.99;95.00;98890.94;4963194;28;20520;-73
2021/12/22 01:12:06;;;;;;;22.03;13.53;;;-5.10;90.50;;;-6.98;94.64;98903.16;4964122;28;20520;-73
2021/12/22 01:14:34;;;;;;;16.23;12.40;;;-5.10;89.70;;;-6.95;94.21;98899.50;4966611;28;20465;-74
2021/12/22 01:17:03;;;;;;;21.70;12.67;;;-5.10;90.10;;;-7.07;94.33;98915.00;4962485;28;20470;-75
2021/12/22 01:19:38;;;;;;;21.10;11.40;;;-5.20;89.50;;;-7.03;94.29;98903.38;4965854;28;20474;-74
2021/12/22 01:22:19;;;;;;;18.23;12.00;;;-5.20;90.00;;;-7.02;94.46;98909.50;4963016;28;20457;-74
2021/12/22 01:24:49;;;;;;;14.03;11.60;;;-5.10;90.30;;;-7.13;95.07;98904.78;4971934;28;20484;-74
2021/12/22 01:27:22;;;;;;;18.70;11.80;;;-5.20;89.60;;;-7.53;94.97;98844.72;4962999;28;20462;-74
2021/12/22 01:29:51;;;;;;;16.47;11.63;;;-5.30;90.20;;;-7.09;94.80;98901.09;4962555;28;20489;-73
2021/12/22 01:32:18;;;;;;;16.77;11.60;;;-5.20;90.40;;;-7.14;95.19;98909.22;4981103;28;20465;-76
2021/12/22 01:34:46;;;;;;;15.17;10.83;;;-5.20;90.10;;;-7.16;95.15;98905.81;4975060;28;20968;-74
2021/12/22 01:37:14;;;;;;;14.82;10.80;;;-5.20;90.00;;;-7.36;94.92;98895.50;4964878;28;20568;-74
2021/12/22 01:39:41;;;;;;;15.70;11.97;;;-5.30;88.90;;;-7.19;94.78;98913.00;4969639;28;20609;-75
2021/12/22 01:42:09;;;;;;;16.43;11.70;;;-5.30;89.90;;;-7.26;94.12;98904.59;4965324;28;20451;-74
2021/12/22 01:44:47;;;;;;;20.38;11.60;;;-5.30;88.80;;;-7.70;94.91;98846.44;4962026;28;20512;-74
2021/12/22 01:50:18;;;;;;;14.83;12.17;;;-5.40;89.60;;;-7.34;94.40;98914.69;4924081;29;20487;-72
2021/12/22 01:52:46;;;;;;;14.23;10.80;;;-5.50;88.90;;;-7.63;94.53;98872.41;4920490;29;20471;-74
2021/12/22 01:55:32;;;;;;;17.25;9.93;;;-5.50;89.90;;;-7.47;94.31;98911.81;4931575;28;20493;-75
2021/12/22 01:58:03;;;;;;;17.20;11.90;;;-5.50;89.00;;;-7.29;94.07;98923.16;4962014;28;20194;-74
2021/12/22 02:00:31;;;;;;;16.10;10.50;;;-5.50;89.60;;;-7.33;94.17;98911.13;4967567;28;20536;-74
2021/12/22 02:02:59;;;;;;;19.35;10.93;;;-5.40;89.00;;;-7.27;93.99;98923.94;4965054;28;20527;-74
2021/12/22 02:05:26;;;;;;;13.53;10.90;;;-5.40;88.70;;;-7.38;94.15;98926.25;4962161;28;20198;-74
2021/12/22 02:07:57;;;;;;;17.23;11.67;;;-5.40;88.20;;;-7.56;94.05;98889.53;4967295;28;21193;-73
2021/12/22 02:13:14;;;;;;;16.07;11.70;;;-5.50;89.50;;;-7.49;94.04;98904.03;4960298;28;20481;-72
2021/12/22 02:15:43;;;;;;;17.30;11.30;;;-5.50;88.60;;;-7.38;93.97;98918.38;4961553;28;21059;-72
2021/12/22 02:18:17;;;;;;;17.27;10.27;;;-5.50;88.80;;;-7.49;94.50;98919.78;4960945;28;20547;-74
2021/12/22 02:20:45;;;;;;;17.73;12.17;;;-5.60;88.60;;;-7.42;94.71;98905.41;4960547;28;20607;-74
2021/12/22 02:23:12;;;;;;;15.53;11.57;;;-5.50;90.20;;;-7.29;94.91;98908.22;4963117;28;20454;-72
2021/12/22 02:25:46;;;;;;;17.20;10.50;;;-5.50;90.70;;;-7.28;94.63;98906.47;4965210;28;20551;-73
2021/12/22 02:28:22;;;;;;;14.30;11.10;;;-5.40;90.10;;;-7.76;94.67;98852.03;4960646;28;20454;-73
2021/12/22 02:30:50;;;;;;;15.23;9.73;;;-5.40;88.80;;;-7.36;93.97;98898.13;4956778;28;20885;-74
2021/12/22 02:33:23;;;;;;;15.80;11.23;;;-5.40;88.60;;;-7.38;94.63;98911.34;4962576;28;20202;-74
2021/12/22 02:38:42;;;;;;;16.53;10.50;;;-5.40;89.20;;;-7.35;93.88;98918.22;4962142;28;20469;-73
2021/12/22 02:41:12;;;;;;;17.13;11.87;;;-5.40;87.90;;;-7.21;93.73;98917.50;4968376;28;20541;-72
2021/12/22 02:43:45;;;;;;;16.57;11.40;;;-5.40;89.40;;;-7.30;94.15;98913.59;4965945;28;20449;-72
2021/12/22 02:46:14;;;;;;;13.60;10.50;;;-5.40;88.20;;;-7.52;94.54;98914.69;4963416;28;21311;-72
2021/12/22 02:48:42;;;;;;;17.50;12.00;;;-5.60;87.70;;;-7.58;94.49;98925.50;4966177;28;20485;-73
2021/12/22 02:51:10;;;;;;;17.50;10.93;;;-5.70;88.90;;;-7.62;94.74;98910.84;4968666;28;20460;-72
2021/12/22 02:53:42;;;;;;;18.03;10.70;;;-5.70;89.60;;;-7.65;95.09;98924.13;4961011;28;21118;-72
2021/12/22 02:59:31;;;;;;;13.70;10.17;;;-5.90;90.00;;;-7.60;95.15;98935.25;4923428;29;21501;-73
2021/12/22 03:02:13;;;;;;;15.63;11.40;;;-5.90;91.80;;;-7.46;93.55;98924.88;4960032;28;20454;-73
2021/12/22 03:04:50;;;;;;;14.63;10.43;;;-5.70;90.90;;;-7.40;93.15;98929.81;4976672;28;20536;-73
2021/12/22 03:07:19;;;;;;;13.80;10.87;;;-5.60;89.40;;;-7.35;92.79;98933.97;4961849;28;20466;-73
2021/12/22 03:09:55;;;;;;;14.60;10.60;;;-5.50;87.80;;;-7.44;93.58;98928.28;4965468;28;20878;-72
2021/12/22 03:12:23;;;;;;;16.73;10.40;;;-5.50;88.20;;;-7.71;94.51;98902.50;4964946;28;20988;-72
2021/12/22 03:14:50;;;;;;;20.20;11.17;;;-5.60;88.10;;;-7.54;94.70;98948.91;4961686;28;20473;-73
2021/12/22 03:17:17;;;;;;;16.20;11.20;;;-5.60;88.70;;;-7.62;95.07;98937.94;4961038;28;20470;-72
2021/12/22 03:19:44;;;;;;;15.20;10.00;;;-5.70;89.00;;;-7.69;95.26;98945.25;4967286;28;20485;-73
2021/12/22 03:22:12;;;;;;;17.93;11.70;;;-5.80;89.50;;;-7.51;94.38;98921.63;4966686;28;20481;-74
2021/12/22 03:24:43;;;;;;;14.67;10.23;;;-5.70;90.70;;;-7.48;94.82;98934.63;4967482;28;21097;-74
2021/12/22 03:27:10;;;;;;;15.20;10.10;;;-5.60;90.40;;;-7.34;93.67;98933.06;4962127;28;20457;-72
2021/12/22 03:29:39;;;;;;;19.63;12.30;;;-5.60;90.00;;;-7.86;93.11;98854.28;4978075;28;20583;-74
2021/12/22 03:32:07;;;;;;;13.70;9.83;;;-5.50;88.60;;;-7.35;92.20;98933.97;4965459;28;20505;-74
2021/12/22 03:34:35;;;;;;;15.07;9.93;;;-5.50;87.00;;;-7.61;92.66;98920.41;4982648;28;20545;-74
2021/12/22 03:37:03;;;;;;;14.40;9.67;;;-5.50;85.90;;;-7.37;93.11;98933.19;4967247;28;21131;-74
2021/12/22 03:39:32;;;;;;;14.50;10.73;;;-5.50;86.80;;;-7.70;93.36;98900.75;4964884;28;20446;-75
2021/12/22 03:42:01;;;;;;;18.03;10.60;;;-5.50;86.60;;;-7.45;93.27;98946.72;4961403;28;20506;-75
2021/12/22 03:44:28;;;;;;;13.03;9.83;;;-5.60;87.50;;;-7.45;92.88;98944.97;4968063;28;20536;-76
2021/12/22 03:46:58;;;;;;;18.00;12.00;;;-5.50;86.70;;;-7.47;93.58;98938.94;4980792;28;20929;-75
2021/12/22 03:49:26;;;;;;;15.23;9.93;;;-5.50;86.40;;;-7.54;93.24;98916.53;4962804;28;20551;-74
2021/12/22 03:51:53;;;;;;;16.00;10.60;;;-5.50;87.10;;;-7.50;93.10;98952.22;4941117;28;20478;-73
2021/12/22 03:54:20;;;;;;;14.63;9.90;;;-5.50;86.10;;;-7.60;93.12;98933.44;4969154;28;20525;-74
2021/12/22 03:56:47;;;;;;;16.43;11.50;;;-5.60;86.60;;;-7.80;94.49;98931.00;4968849;28;20976;-73
2021/12/22 03:59:15;;;;;;;19.27;11.00;;;-5.80;86.10;;;-7.71;94.39;98922.66;4967570;28;20525;-73
2021/12/22 04:01:42;;;;;;;12.43;8.93;;;-5.80;88.60;;;-8.14;94.37;98836.44;4962588;28;21185;-74
2021/12/22 04:04:13;;;;;;;13.80;9.80;;;-5.70;90.10;;;-7.50;93.48;98920.72;4964173;28;20195;-74
2021/12/22 04:06:42;;;;;;;16.70;10.90;;;-5.60;88.20;;;-7.47;93.99;98917.94;4966186;28;20528;-75
2021/12/22 04:09:09;;;;;;;13.67;11.03;;;-5.60;89.50;;;-7.61;93.95;98928.28;4964778;28;22308;-74
2021/12/22 04:11:37;;;;;;;14.07;10.83;;;-5.60;87.60;;;-7.55;93.79;98938.47;4976269;28;20957;-74
2021/12/22 04:14:04;;;;;;;13.73;9.70;;;-5.70;87.90;;;-7.54;93.60;98938.41;4967456;28;20569;-72
2021/12/22 04:16:32;;;;;;;16.40;9.57;;;-5.70;87.70;;;-7.53;93.90;98936.63;4967257;28;20882;-73
2021/12/22 04:18:59;;;;;;;12.50;9.63;;;-5.70;88.10;;;-7.72;93.27;98929.69;4980546;28;20848;-74
2021/12/22 04:21:27;;;;;;;14.67;9.60;;;-5.70;87.30;;;-7.67;93.57;98942.56;4967637;28;20454;-73
2021/12/22 04:23:54;;;;;;;12.00;9.10;;;-5.80;88.00;;;-7.61;93.25;98952.75;4967350;28;20468;-75
2021/12/22 04:26:21;;;;;;;16.13;10.55;;;-5.80;86.90;;;-7.53;92.97;98944.50;4977373;28;20457;-75
2021/12/22 04:28:48;;;;;;;16.63;9.53;;;-5.70;87.10;;;-7.62;92.61;98943.19;4975592;28;20250;-74
2021/12/22 04:31:15;;;;;;;16.20;9.00;;;-5.70;86.20;;;-8.19;92.94;98880.44;4971859;28;20485;-75
2021/12/22 04:33:44;;;;;;;14.27;9.83;;;-5.80;86.70;;;-7.66;92.93;98948.66;4965249;28;20522;-73
2021/12/22 04:36:11;;;;;;;12.88;8.90;;;-5.80;86.20;;;-7.79;92.50;98938.78;4968140;28;21101;-72
2021/12/22 04:38:38;;;;;;;13.70;8.80;;;-5.80;86.00;;;-7.75;91.48;98918.47;4962566;28;20297;-73
2021/12/22 04:41:05;;;;;;;15.00;9.67;;;-5.80;85.20;;;-7.57;91.82;98942.94;4980353;28;20577;-73
2021/12/22 04:43:32;;;;;;;13.13;9.47;;;-5.70;84.40;;;-7.82;90.72;98904.81;4966833;28;20556;-75
2021/12/22 04:45:59;;;;;;;11.87;8.97;;;-5.70;83.20;;;-7.68;90.89;98930.38;4963077;28;20965;-73
2021/12/22 04:48:26;;;;;;;12.00;9.60;;;-5.80;83.00;;;-7.74;91.95;98952.53;4967979;28;20589;-73
2021/12/22 04:50:55;;;;;;;13.20;10.20;;;-5.80;83.70;;;-7.79;92.23;98928.31;4986418;28;20567;-72
2021/12/22 04:53:25;;;;;;;19.10;10.57;;;-5.90;84.80;;;-8.02;92.15;98890.94;4967027;28;20476;-74
2021/12/22 04:55:52;;;;;;;16.30;11.00;;;-5.80;85.60;;;-7.82;92.52;98949.44;4980705;28;21088;-73
2021/12/22 04:58:19;;;;;;;14.53;9.87;;;-5.90;85.10;;;-7.85;92.11;98936.47;4960597;28;20992;-73
2021/12/22 05:00:46;;;;;;;15.30;10.43;;;-5.90;86.10;;;-7.97;92.50;98923.03;4963849;28;20564;-73
2021/12/22 05:03:13;;;;;;;14.60;10.23;;;-5.90;84.70;;;-7.79;92.77;98945.81;4956154;28;20457;-72
2021/12/22 05:05:40;;;;;;;14.43;10.53;;;-5.90;85.00;;;-7.70;91.94;98947.97;4961305;28;20450;-73
2021/12/22 05:08:08;;;;;;;16.10;10.50;;;-5.90;85.50;;;-7.90;92.25;98930.59;4959951;28;20457;-75
2021/12/22 05:10:35;;;;;;;12.93;9.70;;;-5.90;84.00;;;-7.85;92.60;98944.34;4964315;28;20563;-73
2021/12/22 05:13:03;;;;;;;18.63;12.20;;;-5.90;85.30;;;-7.89;92.97;98932.28;4962813;28;20474;-73
2021/12/22 05:15:37;;;;;;;13.37;9.93;;;-5.90;85.40;;;-7.86;93.04;98947.88;4962343;28;20574;-73
2021/12/22 05:18:22;;;;;;;15.27;10.67;;;-5.90;85.60;;;-7.91;92.62;98934.16;4958564;28;20457;-73
2021/12/22 05:20:50;;;;;;;13.43;10.60;;;-5.90;85.00;;;-8.09;92.88;98915.78;4962951;28;20453;-73
2021/12/22 05:23:19;;;;;;;14.90;9.80;;;-6.00;85.40;;;-8.15;93.03;98888.06;4966403;28;20473;-76
2021/12/22 05:25:47;;;;;;;18.70;11.17;;;-5.90;86.50;;;-7.99;92.33;98917.00;4978848;28;20523;-73
2021/12/22 05:28:14;;;;;;;18.83;12.00;;;-5.90;85.50;;;-7.87;92.88;98938.31;4963776;28;20518;-73
2021/12/22 05:30:41;;;;;;;20.47;11.80;;;-5.90;86.00;;;-7.93;93.03;98939.47;4963065;28;20481;-73
2021/12/22 05:33:08;;;;;;;14.63;10.90;;;-5.90;84.70;;;-7.93;92.42;98942.09;4952678;28;20488;-73
2021/12/22 05:35:35;;;;;;;18.13;11.93;;;-6.00;84.80;;;-7.90;92.55;98946.34;4959996;28;20958;-74
2021/12/22 05:38:02;;;;;;;14.85;10.73;;;-6.00;84.80;;;-7.97;92.33;98949.25;4964043;28;20462;-76
2021/12/22 05:40:31;;;;;;;16.50;10.73;;;-6.00;84.50;;;-8.09;92.45;98955.13;4962992;28;20198;-82
2021/12/22 05:42:59;;;;;;;16.43;10.80;;;-6.10;84.10;;;-7.97;92.70;98957.13;4964537;28;20501;-77
2021/12/22 05:45:27;;;;;;;17.93;11.27;;;-6.10;85.40;;;-8.41;92.83;98863.13;4965242;28;20473;-78
2021/12/22 05:47:54;;;;;;;17.80;11.63;;;-6.00;85.50;;;-8.18;92.60;98908.34;4984132;28;20469;-75
2021/12/22 05:50:22;;;;;;;14.63;11.60;;;-6.00;85.50;;;-7.93;92.86;98941.25;4962107;28;20502;-79
2021/12/22 05:52:50;;;;;;;14.90;10.50;;;-6.00;85.50;;;-7.92;92.93;98935.91;4967166;28;20446;-84
2021/12/22 05:55:18;;;;;;;20.23;10.43;;;-6.00;86.00;;;-7.79;92.68;98944.03;4960882;28;20521;-78
2021/12/22 05:57:46;;;;;;;17.63;10.50;;;-5.90;85.10;;;-8.32;91.85;98873.16;4965083;28;20980;-78
2021/12/22 06:00:14;;;;;;;15.33;10.90;;;-5.90;83.80;;;-7.93;91.87;98962.25;4979687;28;21245;-78
2021/12/22 06:02:42;;;;;;;16.37;10.90;;;-6.00;83.50;;;-8.04;92.15;98929.50;4965463;28;20553;-79
2021/12/22 06:05:11;;;;;;;15.17;10.30;;;-6.00;84.40;;;-7.86;91.42;98948.75;4959776;28;20455;-74
2021/12/22 06:07:38;;;;;;;15.95;11.13;;;-6.00;83.70;;;-7.94;91.89;98940.41;4960885;28;20489;-75
2021/12/22 06:10:06;;;;;;;13.37;10.13;;;-6.00;83.90;;;-8.10;92.31;98916.69;4963457;28;20709;-77
2021/12/22 06:12:34;;;;;;;14.70;9.83;;;-6.00;84.60;;;-8.00;91.27;98924.97;4972276;28;20541;-75
2021/12/22 06:15:02;;;;;;;14.93;10.00;;;-6.00;83.60;;;-7.95;91.90;98943.13;4963112;28;21161;-77
2021/12/22 06:17:29;;;;;;;12.23;8.90;;;-6.00;83.50;;;-7.92;91.36;98942.94;4965319;28;21281;-75
2021/12/22 06:19:57;;;;;;;16.80;9.67;;;-6.00;83.40;;;-8.04;91.23;98945.25;4967162;28;21284;-76
2021/12/22 06:22:26;;;;;;;15.47;9.40;;;-6.10;82.80;;;-8.16;91.65;98932.72;4961193;28;20454;-76
2021/12/22 06:24:53;;;;;;;13.23;9.27;;;-6.20;83.30;;;-8.08;92.13;98948.09;4963370;28;21231;-78
2021/12/22 06:27:20;;;;;;;14.63;10.53;;;-6.20;84.20;;;-8.06;91.64;98946.22;4965837;28;20545;-78
2021/12/22 06:29:47;;;;;;;15.73;10.10;;;-6.20;84.50;;;-8.15;92.32;98937.03;4970864;28;20569;-74
2021/12/22 06:32:15;;;;;;;13.37;9.10;;;-6.30;84.30;;;-8.07;92.24;98940.16;4964978;28;20502;-76
2021/12/22 06:34:42;;;;;;;14.27;10.10;;;-6.20;84.40;;;-8.19;91.92;98932.88;4969318;28;20457;-76
2021/12/22 06:37:09;;;;;;;14.30;9.70;;;-6.20;83.70;;;-8.13;92.39;98941.31;4966960;28;20463;-76
2021/12/22 06:39:37;;;;;;;13.73;9.73;;;-6.20;85.00;;;-8.14;91.88;98930.88;4964805;28;20466;-77
2021/12/22 06:42:05;;;;;;;17.43;10.23;;;-6.20;84.70;;;-8.19;91.77;98932.88;4965795;28;20225;-77
2021/12/22 06:44:32;;;;;;;14.37;10.20;;;-6.20;83.90;;;-8.17;92.41;98929.25;4962794;28;20542;-78
2021/12/22 06:46:59;;;;;;;15.70;10.17;;;-6.20;84.50;;;-8.09;92.32;98934.13;4961353;28;21029;-73
2021/12/22 06:49:27;;;;;;;14.90;10.50;;;-6.20;84.60;;;-8.09;91.84;98935.91;4973517;28;20461;-74
2021/12/22 06:51:54;;;;;;;11.43;9.17;;;-6.10;83.60;;;-8.26;92.06;98909.59;4976580;28;20671;-72
2021/12/22 06:54:21;;;;;;;14.83;9.83;;;-6.20;83.70;;;-8.14;92.20;98938.75;4987241;28;21142;-73
2021/12/22 06:56:48;;;;;;;14.57;10.10;;;-6.20;83.90;;;-8.19;92.59;98935.50;4967161;28;20517;-71
2021/12/22 06:59:15;;;;;;;14.60;9.93;;;-6.20;84.00;;;-8.16;92.65;98935.34;4983367;28;20454;-73
2021/12/22 07:01:42;;;;;;;16.20;10.23;;;-6.20;84.80;;;-8.07;92.95;98934.91;4986732;28;20518;-76
2021/12/22 07:04:10;;;;;;;17.65;10.77;;;-6.10;85.40;;;-8.10;92.64;98940.31;4975140;28;20828;-72
2021/12/22 07:06:38;;;;;;;15.00;11.00;;;-6.10;84.20;;;-8.11;92.26;98938.63;4971424;28;20252;-71
2021/12/22 07:09:07;;;;;;;15.27;11.40;;;-6.20;84.80;;;-8.12;92.76;98936.88;4967855;28;21130;-73
2021/12/22 07:11:35;;;;;;;18.77;9.93;;;-6.10;84.60;;;-8.19;92.04;98919.75;4965611;28;21108;-73
2021/12/22 07:14:04;;;;;;;15.17;9.93;;;-6.10;84.20;;;-8.02;91.68;98934.69;4977057;28;20536;-73
2021/12/22 07:16:31;;;;;;;16.17;10.40;;;-6.10;83.00;;;-8.09;92.00;98942.00;4951542;28;20529;-72
2021/12/22 07:19:02;;;;;;;14.90;10.10;;;-6.10;82.80;;;-7.99;91.92;98947.66;4963131;28;20473;-75
2021/12/22 07:21:29;;;;;;;11.60;9.70;;;-6.10;84.60;;;-8.12;91.61;98953.50;4959793;28;20465;-74
2021/12/22 07:23:57;;;;;;;15.97;10.60;;;-6.10;83.70;;;-8.04;91.97;98949.63;4972312;28;20468;-74
2021/12/22 07:26:24;;;;;;;11.93;9.30;;;-6.10;84.20;;;-7.98;92.16;98954.59;4971034;28;20577;-72
2021/12/22 07:28:51;;;;;;;13.73;9.73;;;-6.00;84.40;;;-8.09;92.45;98968.25;4961538;28;20458;-74
2021/12/22 07:31:18;;;;;;;17.43;10.80;;;-6.10;83.60;;;-7.72;92.84;98970.84;4959788;28;20486;-73
2021/12/22 07:33:53;;;;;;;12.83;10.03;;;-5.90;87.50;;;-7.81;92.05;98979.97;4962315;28;20903;-73
2021/12/22 07:36:20;;;;;;;17.00;10.17;;;-5.90;84.10;;;-7.86;91.51;98989.88;4964333;28;20482;-74
2021/12/22 07:38:57;;;;;;;14.97;9.87;;;-5.90;83.80;;;-8.47;91.73;98900.97;4966936;28;21016;-74
2021/12/22 07:41:26;;;;;;;13.45;8.98;;;-6.00;83.20;;;-7.99;91.81;98985.22;4965196;28;21092;-74
2021/12/22 07:43:53;;;;;;;14.37;10.13;;;-6.00;83.80;;;-7.85;91.91;98989.81;4959507;28;20253;-71
2021/12/22 07:46:20;;;;;;;16.63;10.53;;;-5.90;84.00;;;-7.87;91.17;98977.69;4975390;28;20545;-75
2021/12/22 07:48:47;;;;;;;20.38;10.95;;;-5.90;83.20;;;-7.85;91.96;98988.94;4965244;28;21037;-74
2021/12/22 07:51:15;;;;;;;15.03;9.83;;;-5.90;83.50;;;-7.98;91.91;98994.78;4967774;28;20221;-75
2021/12/22 07:53:42;;;;;;;15.57;10.70;;;-6.00;83.30;;;-7.92;92.51;98992.81;4979370;28;20463;-73
2021/12/22 07:56:09;;;;;;;19.80;9.83;;;-6.00;84.40;;;-7.89;92.09;99000.53;4978497;28;20485;-74
2021/12/22 07:58:37;;;;;;;19.40;10.70;;;-6.00;84.70;;;-7.56;92.27;99002.41;4959195;28;20604;-71
2021/12/22 08:01:04;;;;;;;16.83;11.37;;;-5.90;87.30;;;-7.58;92.68;98999.88;4972753;28;20203;-72
2021/12/22 08:03:31;;;;;;;13.33;10.20;;;-5.80;86.00;;;-7.46;92.69;98977.41;4963461;28;20469;-70
2021/12/22 08:05:58;;;;;;;16.60;12.10;;;-5.60;88.60;;;-7.32;91.46;99004.75;4963783;28;20476;-71
2021/12/22 08:08:25;;;;;;;16.57;10.80;;;-5.50;85.00;;;-7.34;91.38;99006.59;4958692;28;20553;-71
2021/12/22 08:10:52;;;;;;;15.20;10.47;;;-5.50;84.30;;;-7.19;90.38;99003.19;4958015;28;20478;-70
2021/12/22 08:13:19;;;;;;;18.40;12.50;;;-5.40;82.90;;;-7.22;90.20;98999.88;4961395;28;20465;-71
2021/12/22 08:15:48;;;;;;;18.60;11.87;;;-5.30;81.50;;;-7.21;90.15;98999.75;4968065;28;20565;-71
2021/12/22 08:18:15;;;;;;;13.37;10.80;;;-5.30;81.30;;;-7.13;90.55;98983.59;4960119;28;20488;-71
2021/12/22 08:20:42;;;;;;;15.87;11.30;;;-5.30;81.70;;;-7.19;90.64;98973.44;4963721;28;20928;-71
2021/12/22 08:23:09;;;;;;;15.73;11.10;;;-5.20;81.70;;;-7.08;90.63;98981.63;4965642;28;20512;-71
2021/12/22 08:25:38;;;;;;;16.60;12.13;;;-5.20;82.30;;;-7.00;90.59;98992.56;4961944;28;20465;-70
2021/12/22 08:28:05;;;;;;;15.03;12.07;;;-5.10;82.10;;;-6.84;90.18;98997.00;4972064;28;20553;-71
2021/12/22 08:30:33;;;;;;;18.77;12.00;;;-5.00;81.70;;;-6.88;90.04;98998.97;4969720;28;20992;-79
2021/12/22 08:33:05;;;;;;;15.30;11.60;;;-5.00;82.00;;;-6.83;90.05;98975.91;4977881;28;20462;-71
2021/12/22 08:38:50;;;;;;;16.83;12.50;;;-4.90;82.30;;;-6.56;89.76;99009.53;4962133;28;20473;-72
2021/12/22 08:41:04;;;;;;;16.80;12.38;;;-4.80;82.30;;;-6.64;89.51;99003.84;4959092;28;20459;-71
2021/12/22 08:43:31;;;;;;;13.30;10.00;;;-4.70;80.90;;;-6.68;89.83;99011.03;4960877;28;20274;-69
2021/12/22 08:45:58;;;;;;;13.23;10.10;;;-4.70;81.10;;;-6.57;89.96;99010.47;4963801;28;20505;-73
2021/12/22 08:48:26;;;;;;;14.33;10.93;;;-4.70;81.80;;;-6.50;90.22;99007.50;4986804;28;20454;-70
2021/12/22 08:50:53;;;;;;;19.50;12.00;;;-4.60;81.90;;;-6.46;90.08;99002.00;4963683;28;20509;-70
2021/12/22 08:53:21;;;;;;;13.63;10.47;;;-4.60;82.00;;;-6.35;89.29;99014.56;4966343;28;21020;-73
2021/12/22 08:55:48;;;;;;;17.90;11.20;;;-4.50;80.70;;;-6.36;89.16;99004.16;4964326;28;21023;-70
2021/12/22 08:58:15;;;;;;;16.80;11.43;;;-4.50;80.90;;;-6.21;89.19;98997.19;4976744;28;20549;-72
2021/12/22 09:00:43;;;;;;;14.67;10.80;;;-4.40;81.10;;;-6.11;89.05;98990.47;4958614;28;20493;-70
2021/12/22 09:03:10;;;;;;;17.27;11.63;;;-4.30;81.40;;;-5.84;87.69;98997.69;4961470;28;20557;-72
2021/12/22 09:05:39;;;;;;;19.47;12.60;;;-4.10;79.50;;;-5.90;87.53;98998.06;4957286;28;20463;-72
2021/12/22 09:08:06;;;;;;;15.47;11.13;;;-4.10;78.20;;;-6.04;88.32;98994.44;4958843;28;20882;-71
2021/12/22 09:10:34;;;;;;;15.80;11.80;;;-4.10;78.60;;;-5.89;88.19;98997.13;4963602;28;20504;-72
2021/12/22 09:13:02;;;;;;;18.77;11.60;;;-4.10;79.50;;;-5.94;88.07;98999.19;4959076;28;20540;-74
2021/12/22 09:15:29;;;;;;;18.67;12.20;;;-4.00;78.60;;;-5.91;88.51;98988.47;4963279;28;20473;-73
2021/12/22 09:17:56;;;;;;;15.23;10.80;;;-4.00;79.00;;;-5.85;88.25;98981.06;4956285;28;20933;-68
2021/12/22 09:20:23;;;;;;;15.93;12.20;;;-4.00;79.20;;;-5.61;88.38;98988.50;4971319;28;20494;-72
2021/12/22 09:22:51;;;;;;;14.70;11.33;;;-3.80;80.50;;;-5.41;87.56;98995.22;4963437;28;20485;-72
2021/12/22 09:25:18;;;;;;;16.97;10.93;;;-3.70;79.00;;;-5.36;87.55;98988.88;4964394;28;20549;-71
2021/12/22 09:27:45;;;;;;;19.97;13.17;;;-3.60;78.90;;;-5.43;86.85;98989.22;4960991;28;20544;-73
2021/12/22 09:30:13;;;;;;;19.37;12.83;;;-3.60;78.50;;;-5.48;87.36;98995.69;4955929;28;20461;-70
2021/12/22 09:32:40;;;;;;;17.97;12.60;;;-3.60;77.90;;;-5.34;87.39;98992.25;4954519;28;20592;-72
2021/12/22 09:35:08;;;;;;;16.87;13.53;;;-3.60;78.50;;;-5.53;86.95;98948.56;4964074;28;20497;-71
2021/12/22 09:37:36;;;;;;;15.90;11.60;;;-3.50;78.20;;;-5.20;87.33;98984.38;4957382;28;20460;-70
2021/12/22 09:40:07;;;;;;;16.57;12.57;;;-3.40;78.60;;;-5.08;87.45;98981.94;4962450;28;20848;-68
2021/12/22 09:42:34;;;;;;;18.77;13.47;;;-3.30;79.00;;;-5.04;86.97;98973.75;4963381;28;20520;-80
2021/12/22 09:45:02;;;;;;;17.83;12.87;;;-3.20;79.00;;;-5.05;87.21;98939.59;4961849;28;20537;-73
2021/12/22 09:47:36;;;;;;;23.40;13.37;;;-3.10;78.90;;;-4.82;86.56;98966.31;4959346;28;21065;-78
2021/12/22 09:50:10;;;;;;;18.80;13.30;;;-3.00;78.20;;;-4.78;86.63;98973.09;4965452;28;20460;-76
2021/12/22 09:52:39;;;;;;;17.33;12.40;;;-3.00;78.30;;;-4.51;86.93;98969.69;4960870;28;20567;-72
2021/12/22 09:55:10;;;;;;;18.10;12.93;;;-2.80;78.90;;;-4.48;87.07;98972.13;4962465;28;20485;-83
2021/12/22 09:57:38;;;;;;;22.50;14.53;;;-2.80;78.90;;;-4.31;85.62;98965.81;4963135;28;20568;-74
2021/12/22 10:00:08;;;;;;;14.90;12.23;;;-2.60;78.40;;;-4.23;86.44;98967.94;4959550;28;20522;-69
2021/12/22 10:02:35;;;;;;;22.83;12.77;;;-2.60;79.10;;;-4.22;86.39;98961.72;4961096;28;20491;-70
2021/12/22 10:05:03;;;;;;;18.97;13.53;;;-2.40;78.00;;;-4.13;85.97;98958.50;4958876;28;20588;-72
2021/12/22 10:07:36;;;;;;;15.20;12.27;;;-2.40;77.80;;;-3.95;86.27;98950.34;4975908;28;20469;-70
2021/12/22 10:10:10;;;;;;;21.33;12.57;;;-2.30;78.10;;;-3.80;85.62;98959.91;4962878;28;20480;-70
2021/12/22 10:12:38;;;;;;;17.27;11.57;;;-2.20;78.10;;;-3.91;84.90;98949.19;4961445;28;20504;-80
2021/12/22 10:15:10;;;;;;;21.60;12.03;;;-2.20;76.20;;;-3.81;84.77;98942.38;4959508;28;20556;-68
2021/12/22 10:17:40;;;;;;;15.07;12.07;;;-2.10;76.20;;;-3.79;86.21;98929.03;4953774;28;20472;-69
2021/12/22 10:20:11;;;;;;;14.43;11.63;;;-2.00;78.00;;;-3.68;84.62;98907.22;4958270;28;20584;-74
2021/12/22 10:22:41;;;;;;;18.60;12.57;;;-1.90;76.60;;;-3.43;83.89;98925.72;4958678;28;20510;-67
2021/12/22 10:25:14;;;;;;;31.00;13.20;;;-1.80;76.00;;;-3.45;83.38;98925.00;4959058;28;20466;-70
2021/12/22 10:27:44;;;;;;;17.77;11.53;;;-1.70;75.70;;;-3.40;83.69;98913.28;4961124;28;20555;-69